Date,TemperatureHighF,TemperatureAvgF,TemperatureLowF,DewpointHighF,DewpointAvgF,DewpointLowF,HumidityHigh,HumidityAvg,HumidityLow,PressureMaxIn,PressureMinIn,WindSpeedMaxMPH,WindSpeedAvgMPH,GustSpeedMaxMPH,PrecipitationSumIn
2013-1-1,34.2,26.9,21.5,19.9,14.4,10.7,75,60,41,30.54,30.27,9,4,15,0.00
2013-1-2,34.5,23.0,11.0,12.0,8.9,4.6,82,57,28,30.60,30.46,7,2,10,0.00
2013-1-3,35.0,23.3,12.1,14.5,10.8,6.7,80,60,40,30.71,30.56,4,1,6,0.00
2013-1-4,35.8,21.6,9.2,11.8,6.3,3.1,80,54,28,30.71,30.54,4,1,5,0.00
2013-1-5,41.9,27.8,14.1,8.3,6.0,3.9,66,41,22,30.73,30.59,6,2,9,0.00
2013-1-6,43.6,27.4,12.9,12.6,8.4,5.4,76,48,22,30.71,30.41,4,0,6,0.00
2013-1-7,49.6,35.0,26.7,17.2,14.0,10.3,63,43,26,30.41,30.14,6,0,7,0.00
2013-1-8,48.3,34.4,24.8,17.0,13.1,9.6,61,43,22,30.47,30.16,9,5,14,0.00
2013-1-9,51.8,35.8,24.0,15.1,13.3,10.6,58,41,22,30.66,30.35,7,2,9,0.00
2013-1-10,47.1,34.9,21.0,22.4,14.7,12.3,72,46,25,30.35,29.92,7,2,10,0.00
2013-1-11,42.4,33.3,22.2,23.6,5.7,-9.0,58,32,18,30.10,29.79,12,6,21,0.00
2013-1-12,32.7,20.7,10.2,0.9,-4.6,-12.4,55,34,17,30.37,30.09,7,2,12,0.00
2013-1-13,30.4,19.4,7.0,3.8,-1.3,-4.3,67,41,24,30.47,30.31,4,1,8,0.00
2013-1-14,29.9,19.9,13.0,21.0,9.9,-1.5,87,66,46,30.46,30.28,7,2,10,0.00
2013-1-15,23.8,15.0,5.1,5.8,1.1,-2.8,78,55,36,30.82,30.45,8,3,13,0.00
2013-1-16,37.7,23.8,10.0,14.3,8.0,1.0,75,52,37,30.88,30.70,7,2,13,0.00
2013-1-17,49.5,30.7,15.4,16.9,14.0,10.0,80,53,25,30.87,30.67,3,0,5,0.00
2013-1-18,51.8,34.8,19.9,19.9,17.3,14.7,83,52,26,30.68,30.45,2,0,4,0.00
2013-1-19,51.8,36.5,25.9,19.5,16.9,12.5,66,47,21,30.60,30.47,8,2,9,0.00
2013-1-20,55.2,37.0,24.5,18.3,13.7,6.7,62,41,17,30.55,30.36,6,2,8,0.00
2013-1-21,52.6,36.9,20.5,16.5,12.1,9.4,63,38,19,30.54,30.38,6,2,9,0.00
2013-1-22,57.6,40.7,24.7,17.8,13.7,5.5,68,37,14,30.52,30.38,6,1,10,0.00
2013-1-23,60.1,40.5,23.5,15.0,11.3,6.0,62,33,12,30.58,30.42,6,1,7,0.00
2013-1-24,62.4,45.4,26.5,34.5,17.1,9.4,56,35,16,30.51,30.31,6,1,10,0.00
2013-1-25,59.1,47.8,36.6,38.6,34.5,29.6,77,61,46,30.38,30.21,3,0,5,0.00
2013-1-26,49.6,45.2,41.7,44.4,37.9,35.2,87,75,66,30.23,29.99,5,1,7,0.11
2013-1-27,59.6,49.0,42.0,40.9,36.9,31.5,84,65,35,30.06,29.93,8,3,14,0.00
2013-1-28,55.7,45.4,37.2,37.8,32.3,16.9,81,61,35,29.98,29.76,11,5,21,0.02
2013-1-29,37.1,31.6,27.1,21.3,13.5,2.4,69,48,27,30.21,29.81,17,6,29,0.00
2013-1-30,40.8,31.2,22.4,17.0,13.5,6.5,67,49,30,30.49,30.22,12,5,20,0.00
2013-1-31,51.0,37.0,22.8,23.4,19.5,16.3,82,52,26,30.57,30.42,8,2,16,0.00
2013-2-1,55.0,39.2,22.3,21.9,19.3,14.1,84,49,22,30.48,30.34,10,2,14,0.00
2013-2-2,55.5,42.2,29.8,22.0,19.3,14.2,65,42,22,30.54,30.42,5,1,9,0.00
2013-2-3,52.7,41.8,27.1,29.2,20.1,14.7,66,43,24,30.46,30.13,6,1,9,0.00
2013-2-4,56.6,43.7,30.8,28.8,24.6,18.8,80,49,24,30.24,30.09,7,3,13,0.00
2013-2-5,59.9,43.6,33.1,23.2,19.4,14.3,63,40,17,30.24,30.08,5,1,9,0.00
2013-2-6,59.7,44.3,26.9,27.4,20.9,17.0,68,41,26,30.13,29.96,8,2,12,0.00
2013-2-7,56.1,44.2,32.1,25.9,21.5,12.8,71,43,18,30.26,30.10,7,2,15,0.00
2013-2-8,57.5,45.7,30.8,23.2,20.2,15.4,64,39,24,30.22,29.84,13,4,19,0.00
2013-2-9,48.7,38.6,30.1,22.5,13.3,3.3,58,37,20,29.98,29.68,16,6,23,0.00
2013-2-10,43.1,33.3,27.0,20.9,14.0,9.2,68,47,25,30.18,29.98,7,2,10,0.00
2013-2-11,45.9,32.8,19.6,22.4,15.9,1.2,85,55,17,30.26,30.11,9,3,16,0.00
2013-2-12,40.6,31.4,22.9,22.6,12.5,3.3,76,49,21,30.42,30.16,10,4,15,0.00
2013-2-13,46.9,34.7,23.8,17.5,13.0,10.2,56,42,26,30.44,30.26,10,4,15,0.00
2013-2-14,50.8,38.5,26.7,19.5,17.4,13.7,66,44,23,30.39,30.23,11,4,16,0.00
2013-2-15,50.8,39.0,24.4,22.8,12.7,1.1,75,39,13,30.55,30.38,14,3,20,0.00
2013-2-16,58.0,41.9,27.2,13.1,7.5,-3.8,51,27,9,30.62,30.28,7,2,12,0.00
2013-2-17,60.6,42.7,23.8,7.8,3.4,-2.4,47,23,8,30.30,29.83,8,3,13,0.00
2013-2-18,51.4,41.6,30.4,16.9,-4.2,-24.1,46,18,4,30.21,29.94,10,4,15,0.00
2013-2-19,58.7,36.8,21.2,34.1,9.1,-10.5,65,34,14,30.24,29.87,15,4,21,0.00
2013-2-20,49.7,43.0,34.8,34.4,27.3,13.0,76,56,24,29.88,29.55,13,5,21,0.00
2013-2-21,45.9,35.0,26.7,27.0,23.2,18.3,92,65,34,30.08,29.64,8,3,13,0.09
2013-2-22,43.2,34.6,28.6,23.2,20.3,11.4,71,57,29,30.25,30.06,12,3,15,0.00
2013-2-23,48.1,35.9,20.7,17.9,12.5,7.3,69,40,22,30.30,29.90,8,2,11,0.00
2013-2-24,41.5,33.8,26.9,24.6,15.8,3.2,91,51,24,30.08,29.78,13,6,21,0.00
2013-2-25,48.4,35.1,23.7,24.6,11.9,0.6,91,44,15,30.33,30.08,9,3,15,0.01
2013-2-26,46.4,35.1,25.5,15.2,6.5,-9.3,62,34,12,30.29,29.99,16,5,22,0.00
2013-2-27,45.5,32.7,19.8,9.6,5.9,0.4,61,35,16,30.52,30.29,7,1,7,0.00
2013-2-28,53.0,38.0,25.2,8.1,3.9,-5.5,41,25,9,30.57,30.41,11,4,15,0.00
2013-3-1,58.8,44.7,29.5,20.4,13.6,4.9,45,29,18,30.56,30.37,10,4,14,0.00
2013-3-2,65.8,48.5,34.4,23.3,21.1,18.9,57,36,17,30.53,30.26,7,1,10,0.00
2013-3-3,68.4,53.1,37.9,22.4,15.7,-7.5,49,26,5,30.26,29.89,8,3,11,0.00
2013-3-4,61.8,54.2,44.5,23.2,19.5,14.2,38,26,16,30.13,29.78,13,4,20,0.00
2013-3-5,61.2,46.3,29.3,22.3,17.4,9.2,67,35,13,30.39,30.13,5,1,8,0.00
2013-3-6,66.9,54.4,45.3,25.8,22.2,18.2,40,29,18,30.28,29.95,8,3,12,0.00
2013-3-7,70.1,55.4,34.2,22.1,17.7,13.0,52,25,13,30.10,29.88,9,2,16,0.00
2013-3-8,60.9,48.3,39.9,42.5,25.9,13.4,86,47,20,29.97,29.75,13,4,19,0.19
2013-3-9,44.9,38.9,32.5,34.4,23.6,15.5,84,56,31,30.09,29.85,10,4,17,0.00
2013-3-10,51.4,41.8,29.0,27.8,22.0,14.1,84,49,26,30.32,30.19,9,3,13,0.00
2013-3-11,62.5,47.5,33.9,20.7,16.5,4.9,52,32,11,30.35,30.10,11,4,19,0.00
2013-3-12,67.1,51.5,34.8,24.3,21.6,19.4,59,33,17,30.31,30.16,8,2,11,0.00
2013-3-13,69.9,53.1,34.7,26.7,22.3,16.1,65,34,15,30.42,30.23,7,1,12,0.00
2013-3-14,76.6,57.0,41.7,23.1,18.6,9.5,42,25,8,30.38,30.17,6,2,8,0.00
2013-3-15,79.1,59.0,39.1,21.6,15.7,5.5,43,21,6,30.21,29.91,5,1,6,0.00
2013-3-16,71.6,61.2,49.5,33.5,20.4,13.0,45,21,13,29.92,29.68,12,4,16,0.00
2013-3-17,68.3,55.3,43.7,35.2,20.3,-17.7,65,35,3,29.85,29.67,12,4,19,0.00
2013-3-18,66.1,52.5,38.0,11.7,6.1,-0.3,32,17,7,30.03,29.85,12,3,17,0.00
2013-3-19,62.0,50.9,40.0,18.2,11.8,3.2,32,21,13,30.23,30.02,8,2,13,0.00
2013-3-20,62.7,49.4,30.6,26.4,18.1,14.5,57,31,17,30.33,29.93,6,2,14,0.00
2013-3-21,70.9,58.6,50.3,32.2,18.1,-8.6,43,25,5,29.92,29.60,14,5,18,0.00
2013-3-22,65.8,51.8,34.6,26.8,13.0,4.2,39,23,10,29.83,29.63,11,3,17,0.00
2013-3-23,51.2,40.6,31.4,27.4,2.5,-18.8,52,24,7,30.21,29.73,19,8,29,0.00
2013-3-24,52.2,36.9,22.8,-2.1,-6.9,-13.1,33,16,9,30.33,30.09,12,2,20,0.00
2013-3-26,65.6,58.9,51.0,12.2,10.5,8.3,20,15,11,30.30,30.03,9,7,14,0.00
2013-3-27,70.8,59.1,45.8,14.9,11.0,4.3,27,16,9,30.11,29.93,7,3,11,0.00
2013-3-28,71.5,61.2,46.0,23.2,15.3,8.0,30,17,9,30.10,29.95,10,2,17,0.00
2013-3-29,72.7,60.1,45.8,25.1,19.8,12.4,44,23,10,30.15,29.99,6,1,11,0.00
2013-3-30,72.9,59.0,40.5,26.1,20.3,14.8,46,24,11,30.16,29.94,7,2,11,0.00
2013-3-31,73.0,60.1,48.4,31.5,27.0,24.6,44,30,17,30.07,29.88,6,1,11,0.00
2013-4-1,75.2,63.0,47.8,27.0,17.9,1.4,41,20,7,30.00,29.76,8,2,12,0.00
2013-4-2,65.9,56.7,47.9,25.7,16.7,-0.3,35,21,7,29.96,29.74,13,3,16,0.00
2013-4-3,65.9,51.3,37.6,31.0,26.1,17.9,69,42,16,30.16,29.96,9,2,12,0.00
2013-4-4,73.3,56.3,36.8,28.1,19.4,7.9,62,29,8,30.28,30.06,4,1,8,0.00
2013-4-5,76.7,65.1,55.7,18.2,12.8,6.3,19,13,7,30.09,29.70,10,4,15,0.00
2013-4-6,76.1,63.4,49.2,25.9,20.2,13.0,38,21,9,29.92,29.72,7,2,15,0.00
2013-4-7,74.4,64.0,48.1,26.6,19.0,11.5,39,19,9,29.83,29.64,8,2,20,0.00
2013-4-8,76.8,64.3,50.3,28.6,20.9,10.5,38,20,8,29.67,29.24,16,6,24,0.00
2013-4-9,55.0,45.8,38.9,35.5,30.8,25.1,86,57,36,29.89,29.30,12,4,24,0.08
2013-4-10,47.5,40.9,34.5,35.2,26.2,19.9,88,57,38,30.11,29.90,9,3,14,0.00
2013-4-11,63.1,47.6,29.9,30.2,24.0,17.7,67,42,24,30.14,29.91,12,5,25,0.00
2013-4-12,68.7,56.4,41.8,34.0,28.6,21.3,66,37,17,29.97,29.80,6,1,8,0.00
2013-4-13,73.9,59.9,39.4,28.9,21.4,10.1,61,27,9,29.91,29.61,9,3,13,0.00
2013-4-14,76.8,65.7,56.2,25.2,21.7,16.4,28,19,11,29.65,29.47,10,6,20,0.00
2013-4-15,81.1,64.7,47.3,25.6,18.6,6.9,39,19,6,29.68,29.46,9,4,20,0.00
2013-4-16,80.5,66.5,53.3,24.4,14.1,-7.4,27,15,4,29.73,29.50,14,6,24,0.00
2013-4-17,62.4,52.4,40.1,27.8,18.2,6.9,41,27,13,29.98,29.55,13,5,18,0.00
2013-4-18,48.7,40.4,30.1,16.6,5.5,-3.6,46,25,13,30.38,29.97,11,6,19,0.00
2013-4-19,63.0,45.7,26.6,6.8,3.6,-3.4,41,20,8,30.48,30.09,5,2,8,0.00
2013-4-20,68.6,56.3,44.3,19.7,6.7,-6.8,25,14,9,30.10,29.85,13,4,17,0.00
2013-4-21,74.0,57.4,39.0,24.1,16.9,1.3,50,24,6,30.16,29.95,9,2,12,0.00
2013-4-22,81.4,65.9,47.8,19.9,13.6,3.6,32,15,5,30.00,29.69,8,3,18,0.00
2013-4-23,68.3,57.8,43.5,29.8,15.7,-18.8,51,22,4,30.06,29.73,17,5,20,0.00
2013-4-24,70.8,50.2,29.1,22.2,17.0,11.4,61,32,12,30.26,30.06,4,1,7,0.00
2013-4-25,76.6,61.1,47.7,29.5,23.5,13.2,39,25,11,30.13,29.77,13,4,22,0.00
2013-4-26,75.1,60.4,45.2,31.1,19.8,-6.4,55,26,4,30.15,29.96,8,2,12,0.00
2013-4-27,77.7,60.9,41.1,29.0,13.7,-11.1,59,23,3,30.21,30.00,7,2,11,0.00
2013-4-28,81.0,63.1,42.2,16.2,6.4,-9.5,34,13,3,30.06,29.80,5,1,9,0.00
2013-4-29,85.0,67.6,46.7,22.3,14.3,6.9,34,15,6,29.89,29.62,7,2,13,0.00
2013-4-30,85.7,71.5,56.8,22.8,14.3,0.6,26,13,5,29.74,29.55,9,3,13,0.00
2013-5-1,82.6,69.5,52.2,28.0,11.5,-6.4,39,12,5,30.05,29.66,11,4,17,0.00
2013-5-2,61.9,49.9,38.9,28.4,17.8,10.0,56,31,13,30.46,30.05,10,3,15,0.00
2013-5-3,68.3,51.6,34.3,16.6,12.9,4.5,43,24,9,30.48,30.05,6,3,13,0.00
2013-5-4,76.6,61.0,41.9,17.9,9.9,0.5,37,15,5,30.07,29.82,11,4,23,0.00
2013-5-5,72.7,61.8,52.3,32.4,19.2,6.8,29,19,11,30.07,29.90,15,7,33,0.00
2013-5-6,70.6,62.4,53.8,39.0,26.4,15.6,46,26,17,29.96,29.86,10,3,17,0.00
2013-5-7,76.2,63.8,46.1,36.9,30.0,21.3,63,31,14,29.99,29.78,11,3,18,0.00
2013-5-8,71.3,60.7,47.0,34.9,25.0,13.5,59,29,11,29.97,29.84,6,2,9,0.00
2013-5-9,72.8,60.1,46.7,37.0,24.7,18.4,46,27,15,30.07,29.91,12,3,17,0.00
2013-5-10,66.5,57.5,48.4,41.9,36.7,31.3,67,47,27,30.27,30.04,8,2,13,0.04
2013-5-11,71.5,58.0,42.9,43.0,37.1,28.0,90,50,20,30.33,30.25,12,2,22,0.00
2013-5-12,80.9,62.2,43.6,36.9,32.6,23.5,71,37,13,30.33,30.08,7,1,10,0.00
2013-5-13,83.7,69.4,54.9,32.8,29.2,24.7,40,24,13,30.21,29.97,6,2,9,0.00
2013-5-14,85.9,70.6,56.8,42.3,26.4,12.9,41,21,11,30.01,29.74,13,2,15,0.00
2013-5-15,86.7,72.8,61.8,42.2,35.3,20.9,47,28,11,29.86,29.66,9,2,12,0.00
2013-5-16,86.8,73.4,58.3,26.5,18.3,2.4,28,14,4,29.87,29.66,7,2,15,0.00
2013-5-17,86.9,71.9,54.5,28.7,20.2,9.8,34,16,7,29.88,29.67,13,3,17,0.00
2013-5-18,77.2,69.4,54.7,29.6,20.1,10.0,32,16,9,29.86,29.64,11,3,15,0.00
2013-5-19,74.6,64.3,55.5,35.9,29.8,17.7,47,29,13,29.85,29.74,14,5,22,0.00
2013-5-20,76.2,62.6,50.6,35.0,27.9,-0.5,53,30,5,29.92,29.74,15,4,23,0.00
2013-5-21,79.9,64.1,45.2,35.6,28.9,17.8,61,31,10,30.00,29.78,8,2,15,0.00
2013-5-22,86.8,71.2,51.5,31.9,20.2,5.5,44,18,5,29.87,29.65,8,2,11,0.00
2013-5-23,90.8,76.1,56.7,45.7,18.7,2.4,36,14,5,29.84,29.62,11,3,15,0.00
2013-5-24,88.7,75.3,59.8,46.0,31.4,16.4,49,24,8,29.90,29.71,7,3,12,0.00
2013-5-25,92.4,74.6,54.7,39.0,21.2,0.4,35,16,4,29.93,29.67,9,2,14,0.00
2013-5-26,88.9,74.2,56.2,28.1,13.4,-12.5,29,12,2,29.90,29.68,7,2,8,0.00
2013-5-27,84.1,70.9,56.8,27.4,13.4,0.5,31,12,4,29.87,29.67,8,2,12,0.00
2013-5-28,85.9,71.1,54.1,26.6,13.7,-5.0,30,13,3,29.74,29.46,7,2,12,0.00
2013-5-29,81.1,70.6,59.1,36.8,21.7,2.4,40,18,5,29.62,29.47,10,4,15,0.00
2013-5-30,86.7,72.2,52.1,29.6,21.9,14.7,33,16,8,29.77,29.62,8,2,13,0.00
2013-5-31,85.3,74.5,62.0,38.2,24.8,1.0,39,19,6,29.82,29.67,14,5,21,0.00
2013-6-1,87.9,74.3,54.6,29.7,9.2,-13.3,24,10,2,29.97,29.82,11,4,24,0.00
2013-6-2,87.6,74.2,64.2,44.5,35.7,28.0,39,25,17,29.96,29.67,12,5,27,0.00
2013-6-3,91.7,77.5,64.5,49.5,35.6,6.0,51,28,5,29.84,29.60,7,4,13,0.00
2013-6-4,92.8,79.0,59.2,30.0,18.4,-0.4,26,12,3,29.83,29.63,7,2,14,0.00
2013-6-5,91.1,77.4,65.0,45.4,32.9,18.3,37,21,8,29.79,29.63,10,3,15,0.00
2013-6-6,90.1,72.6,54.8,44.7,38.4,23.1,61,33,10,29.89,29.72,11,3,21,0.00
2013-6-7,92.5,74.8,56.8,50.9,42.2,26.3,76,37,10,29.88,29.59,10,2,16,0.00
2013-6-8,94.9,79.2,60.2,45.1,34.2,19.0,57,25,7,29.76,29.55,12,4,16,0.00
2013-6-9,97.2,82.1,66.7,47.5,42.7,31.8,49,27,12,29.81,29.65,6,2,10,0.00
2013-6-10,100.0,86.7,71.1,47.8,35.7,20.3,43,20,6,29.81,29.60,14,3,19,0.00
2013-6-11,99.9,86.1,69.2,36.7,23.5,3.6,30,12,3,29.81,29.61,6,2,14,0.00
2013-6-12,99.3,81.7,62.2,37.3,24.8,13.4,31,14,5,29.88,29.72,6,1,11,0.00
2013-6-13,97.5,80.3,64.6,53.2,38.6,28.6,48,24,10,29.85,29.66,12,2,18,0.13
2013-6-14,92.3,78.9,69.2,54.8,48.6,40.6,53,36,17,29.79,29.62,11,3,22,0.01
2013-6-15,92.5,77.4,60.6,53.3,41.9,28.7,70,34,11,29.92,29.75,13,3,21,0.00
2013-6-16,93.6,78.6,63.2,45.5,40.6,32.2,52,28,12,29.92,29.76,10,2,13,0.01
2013-6-17,93.4,78.8,62.6,47.7,40.2,30.5,48,28,11,29.95,29.71,14,2,29,0.00
2013-6-18,92.5,78.6,65.5,52.6,45.6,35.6,59,35,14,29.91,29.66,14,6,32,0.00
2013-6-19,97.3,82.9,67.7,51.5,24.8,-19.5,43,18,1,29.76,29.52,9,3,17,0.00
2013-6-20,96.8,80.0,58.5,31.0,10.3,-23.3,29,10,1,29.80,29.59,7,2,13,0.00
2013-6-21,95.7,80.1,63.1,46.9,20.2,-7.8,42,15,2,29.83,29.62,8,2,16,0.00
2013-6-22,93.6,78.9,61.8,27.1,15.8,0.1,25,11,3,29.82,29.61,8,2,16,0.00
2013-6-23,93.1,78.5,58.4,23.6,14.4,3.6,26,10,4,29.82,29.59,8,3,15,0.00
2013-6-24,94.1,80.2,62.7,29.7,15.2,-3.4,24,10,3,29.79,29.61,6,2,13,0.00
2013-6-25,95.0,79.3,61.0,31.2,21.5,12.9,28,13,5,29.87,29.71,5,1,9,0.00
2013-6-26,99.8,82.3,62.2,33.6,26.5,19.9,31,15,6,29.93,29.73,5,1,8,0.00
2013-6-27,104.1,86.5,65.9,36.3,28.9,14.5,31,15,5,29.91,29.74,10,2,13,0.00
2013-6-28,96.0,85.1,76.4,48.7,42.3,31.9,37,23,13,29.93,29.78,16,4,20,0.00
2013-6-29,97.7,80.7,65.5,50.1,44.5,34.9,57,31,12,29.94,29.74,14,2,16,0.00
2013-6-30,95.7,79.6,65.2,51.7,46.1,38.3,53,33,14,29.95,29.68,10,3,15,0.00
2013-7-1,87.9,72.6,60.9,55.4,51.0,42.9,80,50,25,30.03,29.86,10,3,16,0.03
2013-7-2,85.8,73.1,63.1,54.3,47.6,42.8,60,42,24,30.09,29.83,11,4,16,0.00
2013-7-3,89.0,71.5,58.4,57.1,52.1,43.0,84,55,22,30.02,29.74,9,2,16,0.05
2013-7-4,92.0,77.2,62.1,56.5,50.9,41.8,74,44,20,29.85,29.67,9,2,17,0.01
2013-7-5,93.8,77.3,68.0,64.6,54.0,46.9,88,48,23,29.79,29.58,9,2,10,0.25
2013-7-6,92.6,74.9,64.0,63.9,56.1,45.0,92,58,20,29.86,29.67,11,2,15,0.11
2013-7-7,94.9,78.9,63.2,60.6,54.8,45.1,89,49,19,29.86,29.69,7,2,10,0.01
2013-7-8,93.8,80.0,68.4,60.2,54.1,49.5,74,43,24,29.96,29.77,9,3,15,0.00
2013-7-9,94.8,79.5,67.4,60.7,55.8,48.5,76,48,23,29.99,29.82,10,2,13,0.00
2013-7-10,95.2,83.1,69.8,59.0,52.5,47.1,67,37,20,29.93,29.74,10,3,15,0.00
2013-7-11,89.2,78.6,69.5,59.6,55.7,50.5,70,47,29,29.95,29.73,10,4,18,0.00
2013-7-12,89.8,79.0,66.4,60.2,55.5,50.3,73,47,26,29.88,29.72,9,3,14,0.00
2013-7-13,94.1,80.4,68.1,60.0,54.4,46.5,73,44,20,29.90,29.74,11,3,18,0.03
2013-7-14,96.5,81.4,70.1,56.7,53.0,47.3,61,40,19,29.87,29.63,9,2,18,0.00
2013-7-15,75.0,70.1,66.4,60.7,53.6,49.0,78,56,47,30.02,29.82,11,5,15,0.00
2013-7-16,81.5,70.3,62.5,50.5,48.0,44.8,64,46,30,30.10,29.97,9,3,13,0.00
2013-7-17,80.6,69.9,58.2,55.3,51.6,46.9,84,55,31,30.19,30.03,9,4,14,0.07
2013-7-18,85.8,73.2,60.0,54.5,53.0,50.3,76,51,33,30.13,29.90,7,2,10,0.00
2013-7-19,87.5,70.8,59.0,66.0,60.1,54.1,95,72,36,29.97,29.78,12,2,12,0.94
2013-7-20,88.0,74.4,65.0,62.9,58.9,52.4,89,62,34,29.92,29.74,7,2,11,0.02
2013-7-21,89.2,77.1,66.9,59.8,55.6,47.9,76,50,28,29.85,29.70,11,2,14,0.00
2013-7-22,94.5,79.5,64.1,56.8,52.0,42.0,72,43,18,29.86,29.70,10,1,11,0.00
2013-7-23,95.9,80.5,65.8,56.8,50.7,42.0,68,38,19,29.83,29.65,8,2,12,0.00
2013-7-24,91.1,75.2,67.1,59.1,53.1,47.7,70,48,27,29.97,29.76,13,3,17,0.00
2013-7-25,85.7,74.4,64.9,59.5,57.8,55.9,78,58,37,30.02,29.88,8,3,13,0.00
2013-7-26,88.3,71.4,61.5,65.9,59.8,54.3,97,72,35,30.12,29.92,18,2,22,0.99
2013-7-27,83.4,72.4,59.8,59.7,56.6,51.7,90,60,38,30.14,29.85,6,2,12,0.00
2013-7-28,86.9,75.0,68.0,62.1,58.1,50.3,73,58,29,29.89,29.70,11,2,13,0.04
2013-7-29,89.3,77.0,63.1,61.3,53.1,43.7,87,49,22,29.95,29.82,9,2,11,0.00
2013-7-30,94.3,79.1,62.7,51.8,48.1,43.1,66,37,19,30.06,29.90,4,1,7,0.00
2013-7-31,96.1,81.7,67.8,54.8,49.0,39.2,59,34,15,30.03,29.84,6,2,9,0.00
2013-8-1,86.6,76.3,68.2,62.8,55.7,50.5,80,51,33,29.99,29.84,8,2,13,0.04
2013-8-2,92.3,74.2,64.1,62.2,58.8,51.4,90,63,27,29.95,29.79,9,2,9,0.15
2013-8-3,93.2,76.2,61.5,60.2,55.5,47.9,92,54,24,29.98,29.83,6,1,6,0.00
2013-8-4,93.8,78.7,65.7,61.3,55.7,46.6,85,49,23,29.94,29.77,9,2,15,0.15
2013-8-5,90.4,74.8,62.1,62.3,57.8,53.1,92,60,31,29.96,29.80,5,1,10,0.03
2013-8-6,88.6,75.2,66.0,56.0,53.0,45.3,63,47,23,29.89,29.78,7,2,15,0.00
2013-8-7,82.4,71.6,60.5,56.9,54.2,50.8,78,56,35,29.92,29.82,8,2,13,0.00
2013-8-8,86.2,73.4,61.4,56.4,50.7,41.3,78,49,23,29.93,29.82,10,3,16,0.00
2013-8-9,89.1,74.1,58.5,50.9,46.6,37.8,71,41,18,30.01,29.89,6,2,8,0.00
2013-8-10,84.8,71.7,62.3,55.0,50.8,43.5,69,50,31,30.14,29.94,11,3,16,0.00
2013-8-11,84.8,71.5,61.0,56.8,53.2,47.1,84,56,28,30.16,29.95,6,2,10,0.01
2013-8-12,85.3,73.3,66.7,58.4,54.9,50.1,73,54,32,30.06,29.90,8,2,12,0.00
2013-8-13,88.6,75.2,61.6,56.4,50.5,41.8,73,45,22,30.04,29.89,6,1,9,0.00
2013-8-14,89.3,75.1,60.9,57.9,50.6,39.7,77,46,18,30.01,29.86,15,2,20,0.00
2013-8-15,92.3,76.7,60.9,55.4,49.4,38.2,75,42,16,30.02,29.86,5,2,8,0.00
2013-8-16,95.2,81.0,68.1,53.2,44.7,25.8,51,31,9,29.99,29.82,7,2,10,0.00
2013-8-17,95.0,82.5,72.1,50.5,45.4,38.2,42,29,14,29.94,29.74,11,2,13,0.00
2013-8-18,93.4,80.3,68.0,52.6,48.7,43.0,57,35,19,29.94,29.78,6,1,10,0.00
2013-8-19,94.8,79.2,66.9,56.1,49.9,42.6,59,38,18,29.93,29.75,10,2,10,0.01
2013-8-20,92.2,74.3,63.2,66.6,56.6,50.2,87,57,25,29.94,29.77,7,2,12,0.29
2013-8-21,89.0,76.0,62.0,59.9,53.8,47.3,83,50,28,29.96,29.83,8,1,9,0.00
2013-8-22,91.0,79.3,64.1,53.3,47.7,37.6,59,35,23,29.98,29.78,5,2,12,0.00
2013-8-23,86.7,75.0,58.7,50.1,45.8,35.1,62,36,22,29.94,29.78,10,2,17,0.00
2013-8-24,83.9,74.8,66.8,59.2,53.2,48.3,68,48,33,29.98,29.84,9,2,13,0.00
2013-8-25,82.5,72.2,66.7,63.0,58.7,54.7,85,64,40,30.05,29.96,7,1,12,0.13
2013-8-26,88.3,75.2,60.7,61.7,55.9,46.6,92,56,30,30.10,29.92,6,2,9,0.01
2013-8-27,89.3,77.1,61.2,55.6,51.2,43.2,78,43,26,29.99,29.81,5,2,13,0.00
2013-8-28,88.3,76.4,67.9,56.3,52.3,47.7,57,44,28,29.99,29.85,7,2,11,0.00
2013-8-29,86.3,76.8,69.9,58.7,54.6,51.7,60,47,31,30.03,29.91,7,3,13,0.00
2013-8-30,92.3,79.5,65.0,61.5,54.9,44.4,82,47,20,30.00,29.82,5,2,8,0.00
2013-8-31,94.8,80.6,65.2,57.8,52.8,45.0,72,42,19,29.89,29.69,4,1,10,0.00
2013-9-3,91.9,77.4,67.2,61.9,55.7,48.4,82,53,23,29.92,29.81,5,1,10,0.41
2013-9-4,91.7,78.0,64.8,60.2,47.7,34.2,78,39,16,30.05,29.90,6,2,12,0.00
2013-9-5,91.3,77.6,60.1,48.0,41.1,33.4,62,30,16,30.06,29.91,6,2,11,0.00
2013-9-6,89.9,76.9,59.2,47.0,41.1,33.6,57,30,18,30.05,29.84,6,2,11,0.00
2013-9-7,88.8,75.7,63.2,62.3,50.3,42.8,63,42,27,29.97,29.80,8,1,8,0.05
2013-9-8,89.5,74.8,60.4,52.2,49.0,44.2,67,42,25,29.92,29.70,7,1,9,0.00
2013-9-9,87.7,74.7,60.4,54.2,50.8,43.2,74,45,25,29.82,29.65,8,2,12,0.00
2013-9-10,72.6,65.9,62.1,62.6,57.7,52.8,96,77,56,29.97,29.78,8,2,14,0.77
2013-9-11,83.8,69.8,61.3,62.4,58.2,48.7,97,71,32,30.04,29.92,9,2,16,0.03
2013-9-12,71.0,64.6,59.7,65.7,59.6,56.4,94,84,70,30.01,29.90,7,2,14,1.25
2013-9-13,72.2,63.4,58.4,60.9,59.4,56.1,96,87,64,30.01,29.89,5,1,10,0.49
2013-9-14,75.1,64.5,57.7,59.7,57.6,55.1,97,80,52,29.99,29.86,8,1,10,0.90
2013-9-15,80.5,66.9,56.7,60.1,54.8,49.4,97,69,35,30.04,29.93,8,2,19,0.26
2013-9-16,78.6,67.1,54.9,56.5,54.0,50.5,96,66,39,30.11,29.96,6,1,8,0.00
2013-9-17,81.5,69.7,57.1,58.9,55.5,52.5,92,63,39,30.03,29.82,6,2,12,0.00
2013-9-18,83.2,72.7,65.5,59.8,56.4,49.5,75,58,35,29.87,29.71,7,2,13,0.00
2013-9-19,82.7,70.6,59.5,60.6,53.2,40.1,96,59,29,29.87,29.76,5,1,8,0.25
2013-9-20,82.3,69.0,57.9,53.6,50.6,42.4,74,53,34,29.99,29.84,6,2,9,0.00
2013-9-21,80.8,67.6,54.7,57.0,53.0,49.4,91,62,37,30.00,29.80,6,2,11,0.00
2013-9-22,79.5,66.7,56.0,56.9,51.8,43.8,95,62,31,29.84,29.49,15,5,28,0.45
2013-9-23,71.3,59.3,46.1,44.4,36.4,31.4,76,46,24,30.08,29.70,11,3,18,0.00
2013-9-24,76.9,61.2,44.3,45.1,41.1,37.3,85,51,26,30.18,29.96,4,1,8,0.00
2013-9-25,83.2,67.8,50.1,45.6,40.8,36.4,76,40,22,29.96,29.62,10,3,20,0.00
2013-9-26,82.1,69.0,53.7,43.3,39.4,32.1,63,37,19,29.76,29.60,11,4,16,0.00
2013-9-27,72.2,61.7,46.1,49.7,40.8,31.8,64,47,37,30.01,29.66,11,5,16,0.00
2013-9-28,70.8,52.5,35.7,35.1,26.7,14.4,76,42,12,30.28,30.01,7,1,9,0.00
2013-9-29,76.2,57.3,39.0,32.1,28.2,22.3,73,38,14,30.30,30.05,3,1,6,0.00
2013-9-30,82.1,63.6,45.2,34.5,29.5,23.8,59,31,13,30.08,29.84,6,1,10,0.00
2013-10-1,84.0,64.1,45.6,34.6,28.3,14.5,62,31,8,30.00,29.86,4,0,6,0.00
2013-10-2,80.8,64.0,45.9,33.0,29.6,20.2,59,31,12,30.02,29.83,3,1,6,0.00
2013-10-3,77.1,64.5,47.6,38.0,32.4,25.4,61,32,15,29.89,29.66,7,2,14,0.00
2013-10-4,61.6,55.7,48.5,33.5,20.5,7.0,45,27,13,30.16,29.75,11,6,18,0.00
2013-10-5,60.5,50.7,38.8,23.2,18.8,13.4,53,30,16,30.35,30.16,9,4,14,0.00
2013-10-6,71.5,51.8,36.5,27.4,22.9,17.4,58,35,13,30.45,30.27,4,1,6,0.00
2013-10-7,75.0,56.9,37.5,28.7,25.2,19.0,69,34,13,30.35,30.10,5,1,8,0.00
2013-10-8,78.4,64.4,51.2,35.0,28.6,24.2,47,27,16,30.10,29.77,8,3,15,0.00
2013-10-9,74.6,62.2,44.7,38.3,32.6,25.1,65,35,17,29.90,29.75,9,3,11,0.00
2013-10-10,70.3,57.7,42.2,47.9,35.5,27.5,78,45,26,29.96,29.63,17,5,25,0.11
2013-10-11,62.0,48.4,33.3,33.3,31.2,28.9,85,54,30,30.15,29.96,8,2,13,0.00
2013-10-12,71.1,53.9,35.1,38.1,33.7,31.1,88,51,24,30.26,30.08,6,2,16,0.00
2013-10-13,77.1,61.3,43.5,43.9,38.8,33.3,79,47,21,30.16,29.88,13,4,18,0.00
2013-10-14,67.9,58.5,45.3,43.4,29.7,17.1,69,36,17,30.03,29.89,8,3,15,0.00
2013-10-15,65.0,50.3,34.7,32.5,27.8,22.6,71,43,29,30.14,29.96,14,5,21,0.00
2013-10-16,60.5,51.1,43.5,35.7,28.0,12.8,67,44,20,30.18,30.06,9,3,15,0.00
2013-10-17,64.8,47.6,32.0,26.8,21.5,17.3,68,39,17,30.26,30.02,3,1,7,0.00
2013-10-18,62.1,49.6,34.1,24.3,18.2,12.0,67,32,15,30.25,30.06,11,3,18,0.00
2013-10-19,65.8,47.3,28.3,28.9,22.2,15.0,85,43,16,30.32,30.13,4,1,6,0.00
2013-10-20,70.2,54.4,34.5,23.4,18.1,10.5,61,27,11,30.17,29.90,9,2,13,0.00
2013-10-21,64.1,51.4,38.0,32.5,26.9,17.5,67,40,22,30.23,30.00,6,1,10,0.00
2013-10-22,70.6,50.7,34.0,30.4,25.0,15.0,79,42,13,30.37,30.21,2,0,4,0.00
2013-10-23,72.0,52.8,35.0,31.8,26.9,22.1,72,40,18,30.30,30.13,4,1,7,0.00
2013-10-24,74.6,56.1,38.4,48.1,32.5,25.8,84,46,19,30.25,30.08,8,1,19,0.04
2013-10-25,65.6,53.7,45.2,49.1,44.4,38.2,91,72,44,30.25,30.08,7,2,11,0.07
2013-10-26,67.1,51.0,37.9,44.0,39.0,34.6,94,67,35,30.37,30.21,4,1,6,0.00
2013-10-27,68.8,54.2,37.8,39.3,35.9,31.5,90,54,26,30.29,29.94,5,1,9,0.00
2013-10-28,69.6,58.2,45.7,41.6,32.4,19.0,80,42,18,29.96,29.82,8,2,12,0.00
2013-10-29,67.8,59.1,51.2,28.0,25.1,21.0,37,28,18,30.00,29.78,14,5,20,0.00
2013-10-30,60.1,50.6,40.0,36.9,31.6,24.5,69,49,32,30.02,29.77,11,3,12,0.00
2013-10-31,54.2,44.3,33.7,30.6,26.4,22.0,81,52,29,30.23,30.02,11,4,17,0.00
2013-11-1,60.1,47.5,34.0,29.0,26.4,23.3,74,46,25,30.36,30.19,8,2,13,0.00
2013-11-2,63.1,48.4,32.0,29.9,25.4,21.6,77,44,22,30.43,30.12,7,1,8,0.00
2013-11-3,67.3,55.1,47.0,35.3,29.2,21.9,58,38,23,30.12,29.75,6,1,14,0.00
2013-11-4,66.0,54.3,40.3,42.6,35.6,32.7,76,51,31,29.97,29.78,10,4,15,0.00
2013-11-5,56.2,44.5,33.3,44.2,31.4,15.9,91,62,38,30.36,29.80,8,4,13,0.16
2013-11-6,53.4,40.2,23.6,19.3,15.2,6.9,74,38,17,30.61,30.36,7,2,12,0.00
2013-11-7,60.7,43.6,28.7,25.0,21.4,16.4,78,44,21,30.65,30.40,5,1,7,0.00
2013-11-8,64.2,47.4,31.0,28.1,23.7,16.6,75,42,21,30.41,30.13,4,1,7,0.00
2013-11-9,69.3,49.1,32.5,29.5,25.4,21.2,75,44,17,30.32,30.20,2,0,5,0.00
2013-11-10,68.4,49.3,32.2,29.7,25.7,21.6,75,43,18,30.40,30.26,4,0,4,0.00
2013-11-11,67.4,51.1,35.7,29.8,24.9,20.4,71,39,17,30.42,30.27,5,1,7,0.00
2013-11-12,58.2,45.5,36.3,35.4,30.8,23.0,82,58,38,30.63,30.42,5,1,6,0.00
2013-11-13,55.1,43.5,30.0,39.3,34.8,27.8,94,73,52,30.62,30.28,5,1,9,0.00
2013-11-14,61.4,47.5,37.5,41.1,35.4,29.0,89,65,34,30.28,30.02,5,1,7,0.00
2013-11-15,60.5,46.3,33.0,44.9,34.7,27.8,92,66,37,30.03,29.77,12,3,17,0.13
2013-11-16,60.4,50.4,44.0,43.7,36.6,28.1,92,61,37,29.92,29.68,6,2,10,0.00
2013-11-17,57.7,47.6,35.5,33.0,30.9,28.4,80,54,36,30.25,29.91,9,3,13,0.00
2013-11-18,57.5,43.5,34.8,32.1,30.3,28.3,79,61,34,30.37,30.23,4,1,6,0.00
2013-11-19,62.9,46.0,30.7,35.8,32.2,27.6,90,62,32,30.27,29.98,4,1,8,0.00
2013-11-20,48.9,44.4,39.8,42.6,36.9,30.1,94,76,54,30.04,29.94,5,1,8,0.21
2013-11-21,57.0,47.1,41.6,45.0,42.6,38.9,95,85,58,30.18,30.04,6,1,7,0.22
2013-11-22,43.2,37.4,34.8,39.8,29.9,27.0,89,74,65,30.51,30.15,8,3,16,0.02
2013-11-23,39.7,35.0,29.1,31.2,26.2,18.3,91,71,53,30.60,30.45,9,3,17,0.02
2013-11-24,31.0,28.4,24.7,25.3,22.7,19.0,90,79,69,30.54,30.38,6,2,9,0.00
2013-11-25,45.2,33.9,27.3,30.3,27.1,23.8,92,77,51,30.57,30.34,6,2,9,0.03
2013-11-26,47.8,34.6,24.7,29.5,26.7,22.5,93,75,46,30.67,30.56,5,1,5,0.00
2013-11-27,45.9,34.9,23.4,29.0,26.2,21.4,94,73,48,30.62,30.39,3,1,6,0.00
2013-11-28,50.9,35.5,24.3,27.6,25.1,21.5,92,68,37,30.50,30.37,4,0,6,0.00
2013-11-29,55.9,39.0,25.8,31.4,27.5,22.6,89,66,36,30.57,30.42,2,0,4,0.00
2013-11-30,56.6,40.6,28.1,32.4,30.0,25.8,93,69,39,30.51,30.34,4,1,7,0.00
2013-12-1,48.3,38.8,33.8,32.2,29.5,26.4,82,70,52,30.46,30.36,9,5,16,0.00
2013-12-2,51.4,38.9,28.8,29.3,26.7,23.9,84,63,40,30.38,30.03,7,2,8,0.00
2013-12-3,64.2,49.3,33.5,27.1,20.3,11.9,69,35,13,30.03,29.69,8,3,14,0.00
2013-12-4,59.7,47.8,36.7,30.5,23.4,15.2,67,41,21,29.91,29.59,14,7,20,0.00
2013-12-5,37.7,27.7,14.0,31.2,23.8,10.4,94,86,53,30.24,29.87,6,1,8,0.00
2013-12-6,36.1,23.3,13.6,20.9,15.4,10.5,92,74,39,30.50,30.24,4,0,5,0.08
2013-12-7,34.0,25.3,13.2,29.8,21.0,10.3,90,84,75,30.43,30.13,7,1,11,0.00
2013-12-8,34.2,29.8,25.7,27.0,17.0,10.1,85,59,46,30.23,30.06,11,4,14,0.00
2013-12-9,29.2,24.4,13.3,16.4,8.0,0.2,69,50,31,30.78,30.23,11,5,19,0.00
2013-12-10,35.5,21.4,9.5,9.8,4.1,0.1,72,49,26,30.82,30.61,10,2,14,0.00
2013-12-11,42.0,26.4,14.5,18.4,12.4,7.3,79,58,29,30.82,30.65,4,1,7,0.00
2013-12-12,42.2,30.0,18.1,22.2,18.0,12.9,85,63,40,30.80,30.39,6,1,11,0.00
2013-12-13,46.1,36.7,31.7,32.5,26.3,19.9,89,67,51,30.39,30.15,10,3,15,0.01
2013-12-14,45.7,34.8,24.8,20.2,18.4,16.3,77,52,32,30.62,30.31,9,3,13,0.00
2013-12-15,47.2,36.5,27.1,20.4,18.3,16.6,66,49,31,30.63,30.48,10,3,13,0.00
2013-12-16,54.9,40.7,27.0,23.2,21.1,19.5,74,47,26,30.60,30.45,9,2,12,0.00
2013-12-17,55.9,41.4,25.7,23.0,21.5,19.4,79,47,25,30.60,30.44,7,2,10,0.00
2013-12-18,54.3,39.3,26.1,25.9,22.8,20.0,80,54,29,30.44,30.09,3,0,5,0.00
2013-12-19,57.3,45.7,32.7,25.3,22.5,17.3,67,41,27,30.09,29.78,7,2,8,0.00
2013-12-20,53.2,41.1,29.5,33.0,24.5,18.5,74,54,27,29.92,29.73,7,1,10,0.00
2013-12-21,40.9,36.7,32.8,32.6,28.1,24.2,95,72,53,30.01,29.67,11,5,17,0.24
2013-12-22,35.7,32.4,30.1,24.3,21.5,19.4,70,64,61,30.31,30.01,8,4,11,0.00
2013-12-23,47.6,36.0,24.4,21.5,18.8,15.9,70,50,32,30.70,30.51,7,2,11,0.00
2013-12-24,49.9,37.6,25.1,24.3,21.5,18.5,78,54,33,30.61,30.36,8,1,11,0.00
2013-12-25,45.7,34.6,26.4,22.7,17.3,11.1,73,51,25,30.61,30.48,6,2,10,0.00
2013-12-26,50.3,33.6,19.7,19.7,15.7,12.2,77,50,27,30.65,30.47,4,1,7,0.00
2013-12-27,54.0,35.5,23.7,20.8,16.6,13.9,72,49,22,30.61,30.43,4,1,6,0.00
2013-12-28,48.3,34.8,21.8,20.6,17.7,15.4,79,52,27,30.44,30.11,5,1,9,0.00
2013-12-29,45.7,37.3,27.9,23.5,22.0,19.5,74,55,36,30.37,30.16,7,1,9,0.00
2013-12-30,49.6,37.4,26.5,20.9,13.5,7.4,72,39,19,30.54,30.37,11,2,13,0.00
2013-12-31,50.5,36.3,22.4,19.4,16.5,14.3,74,47,25,30.55,30.34,4,1,5,0.00
2014-1-1,53.5,39.8,26.1,21.1,18.5,14.5,71,45,22,30.47,30.26,12,3,20,0.00
2014-1-2,51.6,36.3,22.9,23.3,15.6,8.7,77,47,18,30.57,30.43,3,1,5,0.00